createdAt,value
2022-11-02T00:00:54.206Z,23.12
2022-11-02T00:01:56.176Z,23.77
2022-11-02T00:02:58.714Z,22.39
2022-11-02T00:04:00.702Z,23.11
2022-11-02T00:05:02.858Z,21.38
2022-11-02T00:06:05.806Z,23.58
2022-11-02T00:07:07.695Z,23.53
2022-11-02T00:08:10.712Z,26.36
2022-11-02T00:09:12.699Z,25.97
2022-11-02T00:10:16.792Z,25.79
2022-11-02T00:11:18.680Z,22.96
2022-11-02T00:12:21.496Z,22.90
2022-11-02T00:13:23.480Z,23.27
2022-11-02T00:14:25.431Z,23.87
2022-11-02T00:15:30.421Z,23.34
2022-11-02T00:16:32.837Z,22.78
2022-11-02T00:17:36.986Z,23.92
2022-11-02T00:18:40.309Z,23.01
2022-11-02T00:19:42.233Z,21.63
2022-11-02T00:20:44.562Z,24.11
2022-11-02T00:21:46.838Z,25.05
2022-11-02T00:22:52.611Z,22.78
2022-11-02T00:23:57.165Z,22.93
2022-11-02T00:25:02.110Z,23.11
2022-11-02T00:26:04.401Z,22.02
2022-11-02T00:27:07.018Z,23.25
2022-11-02T00:28:09.666Z,23.22
2022-11-02T00:29:12.829Z,23.82
2022-11-02T00:30:15.187Z,20.57
2022-11-02T00:31:17.216Z,22.34
2022-11-02T00:32:19.305Z,22.57
2022-11-02T00:33:21.202Z,19.85
2022-11-02T00:34:24.020Z,18.77
2022-11-02T00:35:26.992Z,17.82
2022-11-02T00:36:28.978Z,18.81
2022-11-02T00:37:30.879Z,19.66
2022-11-02T00:38:32.909Z,20.33
2022-11-02T00:39:34.778Z,20.77
2022-11-02T00:40:37.376Z,20.49
2022-11-02T00:41:39.367Z,18.89
2022-11-02T00:42:41.265Z,17.51
2022-11-02T00:43:43.249Z,18.43
2022-11-02T00:44:45.137Z,18.63
2022-11-02T00:45:47.033Z,18.34
2022-11-02T00:46:49.020Z,16.81
2022-11-02T00:47:50.902Z,14.86
2022-11-02T00:48:52.797Z,14.29
2022-11-02T00:49:55.347Z,12.79
2022-11-02T00:50:57.392Z,13.94
2022-11-02T00:51:59.270Z,13.07
2022-11-02T00:53:01.142Z,13.25
2022-11-02T00:54:03.036Z,14.31
2022-11-02T00:55:06.361Z,15.61
2022-11-02T00:56:09.117Z,18.38
2022-11-02T00:57:10.994Z,19.53
2022-11-02T00:58:15.000Z,18.85
2022-11-02T00:59:16.903Z,19.51
2022-11-02T01:00:19.643Z,18.07
2022-11-02T01:01:21.828Z,19.61
2022-11-02T01:02:24.187Z,18.27
2022-11-02T01:03:26.324Z,18.11
2022-11-02T01:04:29.555Z,17.81
2022-11-02T01:05:31.452Z,19.06
2022-11-02T01:06:33.442Z,18.25
2022-11-02T01:07:35.937Z,19.13
2022-11-02T01:08:38.149Z,19.75
2022-11-02T01:09:40.803Z,20.02
2022-11-02T01:10:45.635Z,18.96
2022-11-02T01:11:46.988Z,20.71
2022-11-02T01:12:49.560Z,17.40
2022-11-02T01:13:52.479Z,19.49
2022-11-02T01:14:55.228Z,18.99
2022-11-02T01:15:57.117Z,18.43
2022-11-02T01:16:59.150Z,19.85
2022-11-02T01:18:01.175Z,20.89
2022-11-02T01:19:03.367Z,20.39
2022-11-02T01:20:06.439Z,20.92
2022-11-02T01:21:08.453Z,19.31
2022-11-02T01:22:11.098Z,21.69
2022-11-02T01:23:13.004Z,20.70
2022-11-02T01:24:14.889Z,19.37
2022-11-02T01:25:16.879Z,18.87
2022-11-02T01:26:21.247Z,18.39
2022-11-02T01:27:23.530Z,18.50
2022-11-02T01:28:26.343Z,17.75
2022-11-02T01:29:28.237Z,18.16
2022-11-02T01:30:30.237Z,15.71
2022-11-02T01:31:32.105Z,15.50
2022-11-02T01:32:34.686Z,14.85
2022-11-02T01:33:40.137Z,16.82
2022-11-02T01:34:42.050Z,14.13
2022-11-02T01:35:45.227Z,15.12
2022-11-02T01:36:47.368Z,18.42
2022-11-02T01:37:49.269Z,17.63
2022-11-02T01:38:51.300Z,15.42
2022-11-02T01:39:53.179Z,16.77
2022-11-02T01:40:55.147Z,15.05
2022-11-02T01:41:57.017Z,15.13
2022-11-02T01:42:58.910Z,16.34
2022-11-02T01:44:05.005Z,15.96
2022-11-02T01:45:09.550Z,13.82
2022-11-02T01:46:15.853Z,15.12
2022-11-02T01:47:30.313Z,13.74
2022-11-02T01:48:48.273Z,16.62
2022-11-02T01:49:56.495Z,17.82
2022-11-02T01:51:03.158Z,17.11
2022-11-02T01:52:18.081Z,16.88
2022-11-02T01:53:20.479Z,17.46
2022-11-02T01:54:26.392Z,17.41
2022-11-02T01:55:32.121Z,17.51
2022-11-02T01:56:35.446Z,17.32
2022-11-02T01:57:40.815Z,17.26
2022-11-02T01:58:46.523Z,17.52
2022-11-02T02:00:01.530Z,16.71
2022-11-02T02:01:03.630Z,17.93
2022-11-02T02:02:09.393Z,18.01
2022-11-02T02:03:17.219Z,17.45
2022-11-02T02:04:20.176Z,16.62
2022-11-02T02:05:24.152Z,17.83
2022-11-02T02:06:27.225Z,15.76
2022-11-02T02:07:31.242Z,17.45
2022-11-02T02:08:36.766Z,16.74
2022-11-02T02:09:39.732Z,15.98
2022-11-02T02:10:41.771Z,15.94
2022-11-02T02:11:43.676Z,15.17
2022-11-02T02:12:46.909Z,16.13
2022-11-02T02:13:49.246Z,14.75
2022-11-02T02:14:52.835Z,16.07
2022-11-02T02:16:08.859Z,15.78
2022-11-02T02:17:43.573Z,17.64
2022-11-02T02:20:11.346Z,17.12
2022-11-02T02:21:26.471Z,17.17
2022-11-02T02:22:53.602Z,17.91
2022-11-02T02:24:17.093Z,15.78
2022-11-02T02:25:28.970Z,15.69
2022-11-02T02:26:52.985Z,16.80
2022-11-02T02:28:21.912Z,15.94
2022-11-02T02:29:39.650Z,16.50
2022-11-02T02:30:48.218Z,15.43
2022-11-02T02:31:57.548Z,15.91
2022-11-02T02:34:26.671Z,17.11
2022-11-02T02:35:38.567Z,17.14
2022-11-02T02:36:50.071Z,16.93
2022-11-02T02:38:02.811Z,16.44
2022-11-02T02:39:11.663Z,16.83
2022-11-02T02:40:17.736Z,15.71
2022-11-02T02:41:40.286Z,16.68
2022-11-02T02:42:55.033Z,16.50
2022-11-02T02:44:00.040Z,17.28
2022-11-02T02:45:11.879Z,16.59
2022-11-02T02:46:23.457Z,17.98
2022-11-02T02:47:29.352Z,16.04
2022-11-02T02:48:33.731Z,16.60
2022-11-02T02:49:42.486Z,15.68
2022-11-02T02:50:57.113Z,14.38
2022-11-02T02:52:00.005Z,14.43
2022-11-02T02:53:05.170Z,15.15
2022-11-02T02:54:10.851Z,15.23
2022-11-02T02:55:17.133Z,15.71
2022-11-02T02:56:22.959Z,14.91
2022-11-02T02:57:28.780Z,15.46
2022-11-02T02:58:34.553Z,17.15
2022-11-02T02:59:42.224Z,16.37
2022-11-02T03:00:45.227Z,15.86
2022-11-02T03:01:47.782Z,16.02
2022-11-02T03:02:51.462Z,14.36
2022-11-02T03:03:53.723Z,13.78
2022-11-02T03:04:55.622Z,15.22
2022-11-02T03:07:20.760Z,14.50
2022-11-02T03:08:23.763Z,15.09
2022-11-02T03:09:38.201Z,16.19
2022-11-02T03:10:55.812Z,15.85
2022-11-02T03:12:18.301Z,15.66
2022-11-02T03:13:42.514Z,16.44
2022-11-02T03:15:13.879Z,16.57
2022-11-02T03:16:28.964Z,15.37
2022-11-02T03:18:07.186Z,15.79
2022-11-02T03:19:24.873Z,16.14
2022-11-02T03:20:50.353Z,15.71
2022-11-02T03:22:01.613Z,16.26
2022-11-02T03:23:16.998Z,14.62
2022-11-02T03:24:28.648Z,15.23
2022-11-02T03:28:04.296Z,14.49
2022-11-02T03:29:19.914Z,15.66
2022-11-02T03:30:25.267Z,15.62
2022-11-02T03:31:53.358Z,16.13
2022-11-02T03:35:49.270Z,15.66
2022-11-02T03:37:05.668Z,14.71
2022-11-02T03:38:15.262Z,15.57
2022-11-02T03:41:40.999Z,15.92
2022-11-02T03:42:44.714Z,15.41
2022-11-02T03:43:50.421Z,15.52
2022-11-02T03:44:59.027Z,15.89
2022-11-02T03:46:04.091Z,16.39
2022-11-02T03:47:09.823Z,16.18
2022-11-02T03:48:14.230Z,15.06
2022-11-02T03:49:20.044Z,15.81
2022-11-02T03:50:24.592Z,15.56
2022-11-02T03:51:29.429Z,16.27
2022-11-02T03:52:34.863Z,16.39
2022-11-02T03:53:43.333Z,15.05
2022-11-02T03:54:55.089Z,16.39
2022-11-02T03:56:00.761Z,15.23
2022-11-02T03:57:06.707Z,15.26
2022-11-02T03:58:12.047Z,15.80
2022-11-02T03:59:14.332Z,16.22
2022-11-02T04:00:22.165Z,15.19
2022-11-02T04:01:27.486Z,15.18
2022-11-02T04:02:30.401Z,15.63
2022-11-02T04:03:35.966Z,14.96
2022-11-02T04:06:01.315Z,18.45
2022-11-02T04:07:03.342Z,16.78
2022-11-02T04:08:08.185Z,18.01
2022-11-02T04:09:11.758Z,16.51
2022-11-02T04:10:14.467Z,16.80
2022-11-02T04:11:16.362Z,16.84
2022-11-02T04:12:18.244Z,16.85
2022-11-02T04:13:22.983Z,17.01
2022-11-02T04:14:26.421Z,16.73
2022-11-02T04:15:29.800Z,15.96
2022-11-02T04:16:31.787Z,15.55
2022-11-02T04:17:33.692Z,16.29
2022-11-02T04:18:35.691Z,17.43
2022-11-02T04:19:37.707Z,16.59
2022-11-02T04:20:40.310Z,17.10
2022-11-02T04:21:42.268Z,16.57
2022-11-02T04:22:44.155Z,17.07
2022-11-02T04:23:47.227Z,17.09
2022-11-02T04:24:49.118Z,15.15
2022-11-02T04:25:56.522Z,15.35
2022-11-02T04:26:58.575Z,16.39
2022-11-02T04:28:10.893Z,16.36
2022-11-02T04:29:12.985Z,16.11
2022-11-02T04:30:18.039Z,15.31
2022-11-02T04:31:19.986Z,15.34
2022-11-02T04:32:22.844Z,15.46
2022-11-02T04:33:25.097Z,15.53
2022-11-02T04:34:26.966Z,16.17
2022-11-02T04:35:29.431Z,14.89
2022-11-02T04:36:32.064Z,16.21
2022-11-02T04:37:41.048Z,15.42
2022-11-02T04:38:42.973Z,16.04
2022-11-02T04:39:44.875Z,15.39
2022-11-02T04:40:47.639Z,16.09
2022-11-02T04:41:51.020Z,16.42
2022-11-02T04:42:53.455Z,16.43
2022-11-02T04:43:55.725Z,16.39
2022-11-02T04:44:57.633Z,17.29
2022-11-02T04:45:59.508Z,16.91
2022-11-02T04:47:01.519Z,18.61
2022-11-02T04:48:06.814Z,17.70
2022-11-02T04:49:12.163Z,18.20
2022-11-02T04:50:15.162Z,16.90
2022-11-02T04:51:18.198Z,18.27
2022-11-02T04:52:20.151Z,18.11
2022-11-02T04:53:23.863Z,18.39
2022-11-02T04:54:25.760Z,19.39
2022-11-02T04:55:29.164Z,18.31
2022-11-02T04:56:33.307Z,19.29
2022-11-02T04:57:35.267Z,19.84
2022-11-02T04:58:37.364Z,21.25
2022-11-02T04:59:39.278Z,20.39
2022-11-02T05:00:41.262Z,20.82
2022-11-02T05:01:43.844Z,21.21
2022-11-02T05:02:50.199Z,19.94
2022-11-02T05:03:54.429Z,20.49
2022-11-02T05:04:56.328Z,19.96
2022-11-02T05:05:58.249Z,19.56
2022-11-02T05:07:01.665Z,19.50
2022-11-02T05:08:04.700Z,18.79
2022-11-02T05:09:09.646Z,18.65
2022-11-02T05:10:12.058Z,17.94
2022-11-02T05:11:14.376Z,19.05
2022-11-02T05:12:16.296Z,19.01
2022-11-02T05:13:18.177Z,19.09
2022-11-02T05:14:20.077Z,18.53
2022-11-02T05:15:22.061Z,17.47
2022-11-02T05:16:25.555Z,17.70
2022-11-02T05:17:27.466Z,17.40
2022-11-02T05:18:29.950Z,16.26
2022-11-02T05:19:31.836Z,16.33
2022-11-02T05:20:33.837Z,16.73
2022-11-02T05:21:35.712Z,16.81
2022-11-02T05:22:42.922Z,17.09
2022-11-02T05:23:44.975Z,15.92
2022-11-02T05:24:47.220Z,16.84
2022-11-02T05:27:06.587Z,16.77
2022-11-02T05:28:08.480Z,16.45
2022-11-02T05:29:10.416Z,18.18
2022-11-02T05:30:13.208Z,18.45
2022-11-02T05:31:15.100Z,19.48
2022-11-02T05:32:17.021Z,19.53
2022-11-02T05:33:20.657Z,19.31
2022-11-02T05:34:22.962Z,18.63
2022-11-02T05:35:24.957Z,19.01
2022-11-02T05:36:26.944Z,21.78
2022-11-02T05:37:28.844Z,20.77
2022-11-02T05:38:30.753Z,20.47
2022-11-02T05:39:32.748Z,21.96
2022-11-02T05:40:37.527Z,20.14
2022-11-02T05:41:43.161Z,21.12
2022-11-02T05:42:47.239Z,19.86
2022-11-02T05:43:49.143Z,20.11
2022-11-02T05:44:51.036Z,21.58
2022-11-02T05:47:07.134Z,22.08
2022-11-02T05:48:10.013Z,18.54
2022-11-02T05:49:11.928Z,19.51
2022-11-02T05:50:14.726Z,19.93
2022-11-02T05:51:16.972Z,21.08
2022-11-02T05:52:18.874Z,20.28
2022-11-02T05:53:20.761Z,22.37
2022-11-02T05:54:23.740Z,27.47
2022-11-02T05:55:26.038Z,26.97
2022-11-02T05:56:28.052Z,24.98
2022-11-02T05:57:29.955Z,27.13
2022-11-02T05:58:33.516Z,25.88
2022-11-02T05:59:35.481Z,28.07
2022-11-02T06:00:37.948Z,26.34
2022-11-02T06:01:40.050Z,24.54
2022-11-02T06:02:43.398Z,26.46
2022-11-02T06:03:49.058Z,26.27
2022-11-02T06:04:49.205Z,26.92
2022-11-02T06:06:02.662Z,27.15
2022-11-02T06:07:04.595Z,26.12
2022-11-02T06:08:06.591Z,25.05
2022-11-02T06:09:09.027Z,25.98
2022-11-02T06:10:11.532Z,25.92
2022-11-02T06:11:15.051Z,24.73
2022-11-02T06:12:17.484Z,25.57
2022-11-02T06:13:19.704Z,25.83
2022-11-02T06:14:21.640Z,23.16
2022-11-02T06:15:26.569Z,24.23
2022-11-02T06:16:29.132Z,23.79
2022-11-02T06:17:39.144Z,23.61
2022-11-02T06:18:44.148Z,23.76
2022-11-02T06:19:46.105Z,23.67
2022-11-02T06:20:48.101Z,23.15
2022-11-02T06:21:50.003Z,22.86
2022-11-02T06:22:51.974Z,22.22
2022-11-02T06:23:54.128Z,23.21
2022-11-02T06:24:56.626Z,22.24
2022-11-02T06:26:00.021Z,21.34
2022-11-02T06:27:04.130Z,20.91
2022-11-02T06:28:06.054Z,19.71
2022-11-02T06:29:07.951Z,20.64
2022-11-02T06:30:11.393Z,21.54
2022-11-02T06:31:13.493Z,21.31
2022-11-02T06:32:15.430Z,21.28
2022-11-02T06:33:19.292Z,20.57
2022-11-02T06:34:21.537Z,20.25
2022-11-02T06:35:23.453Z,21.55
2022-11-02T06:36:25.460Z,20.91
2022-11-02T06:37:27.365Z,21.09
2022-11-02T06:38:29.351Z,20.52
2022-11-02T06:39:31.304Z,18.91
2022-11-02T06:40:33.443Z,18.98
2022-11-02T06:41:35.465Z,19.40
2022-11-02T06:42:44.892Z,18.89
2022-11-02T06:43:42.188Z,19.43
2022-11-02T06:44:44.092Z,18.31
2022-11-02T06:45:47.720Z,19.01
2022-11-02T06:46:49.740Z,18.31
2022-11-02T06:47:51.691Z,18.54
2022-11-02T06:48:53.561Z,18.56
2022-11-02T06:49:55.455Z,18.75
2022-11-02T06:50:57.459Z,20.44
2022-11-02T06:51:59.329Z,20.23
2022-11-02T06:53:01.511Z,18.45
2022-11-02T06:54:08.460Z,17.92
2022-11-02T06:55:08.613Z,19.64
2022-11-02T06:56:10.764Z,19.49
2022-11-02T06:57:12.654Z,18.27
2022-11-02T06:58:14.522Z,19.31
2022-11-02T06:59:16.404Z,20.30
2022-11-02T07:00:22.798Z,19.81
2022-11-02T07:01:23.756Z,19.43
2022-11-02T07:02:26.098Z,19.05
2022-11-02T07:03:29.071Z,18.89
2022-11-02T07:04:32.655Z,18.46
2022-11-02T07:05:36.578Z,19.79
2022-11-02T07:06:38.972Z,18.80
2022-11-02T07:07:40.897Z,18.77
2022-11-02T07:08:43.843Z,18.63
2022-11-02T07:09:45.746Z,18.49
2022-11-02T07:10:48.787Z,18.72
2022-11-02T07:11:50.680Z,18.79
2022-11-02T07:12:54.416Z,18.19
2022-11-02T07:13:56.329Z,19.44
2022-11-02T07:14:58.235Z,18.69
2022-11-02T07:16:00.134Z,18.46
2022-11-02T07:17:02.023Z,19.10
2022-11-02T07:18:05.006Z,18.75
2022-11-02T07:19:06.940Z,18.47
2022-11-02T07:20:10.477Z,19.81
2022-11-02T07:21:12.461Z,18.07
2022-11-02T07:22:14.464Z,18.19
2022-11-02T07:23:17.439Z,17.39
2022-11-02T07:24:19.454Z,18.21
2022-11-02T07:25:21.888Z,18.79
2022-11-02T07:26:24.303Z,18.98
2022-11-02T07:27:26.194Z,17.89
2022-11-02T07:28:28.175Z,17.19
2022-11-02T07:29:30.112Z,17.69
2022-11-02T07:30:33.889Z,17.29
2022-11-02T07:31:35.819Z,18.32
2022-11-02T07:32:45.248Z,17.11
2022-11-02T07:33:47.179Z,16.81
2022-11-02T07:34:49.113Z,16.31
2022-11-02T07:35:50.981Z,16.76
2022-11-02T07:36:54.924Z,17.30
2022-11-02T07:37:59.403Z,15.81
2022-11-02T07:39:01.344Z,16.73
2022-11-02T07:40:05.571Z,15.95
2022-11-02T07:41:08.200Z,16.78
2022-11-02T07:42:10.102Z,16.95
2022-11-02T07:43:12.304Z,16.46
2022-11-02T07:44:14.184Z,17.27
2022-11-02T07:45:16.080Z,17.53
2022-11-02T07:46:18.077Z,18.33
2022-11-02T07:47:19.985Z,17.74
2022-11-02T07:48:22.005Z,18.05
2022-11-02T07:49:24.669Z,17.54
2022-11-02T07:50:26.689Z,17.93
2022-11-02T07:51:28.878Z,20.03
2022-11-02T07:52:30.759Z,17.82
2022-11-02T07:53:33.628Z,16.87
2022-11-02T07:54:37.652Z,17.24
2022-11-02T07:55:39.733Z,15.58
2022-11-02T07:56:44.788Z,16.29
2022-11-02T07:57:57.618Z,16.30
2022-11-02T07:58:59.644Z,19.00
2022-11-02T08:00:01.700Z,15.33
2022-11-02T08:01:03.779Z,14.64
2022-11-02T08:02:05.763Z,14.61
2022-11-02T08:03:10.225Z,13.37
2022-11-02T08:04:12.601Z,15.03
2022-11-02T08:05:15.265Z,14.95
2022-11-02T08:06:18.058Z,13.76
2022-11-02T08:07:19.967Z,12.93
2022-11-02T08:08:23.584Z,13.75
2022-11-02T08:09:25.517Z,14.11
2022-11-02T08:10:33.914Z,13.27
2022-11-02T08:11:34.152Z,13.90
2022-11-02T08:12:36.737Z,14.59
2022-11-02T08:13:39.017Z,14.51
2022-11-02T08:14:42.739Z,13.31
2022-11-02T08:15:50.664Z,14.63
2022-11-02T08:16:55.073Z,14.55
2022-11-02T08:18:02.291Z,14.86
2022-11-02T08:19:04.926Z,14.69
2022-11-02T08:20:08.852Z,14.03
2022-11-02T08:21:10.796Z,14.03
2022-11-02T08:22:12.689Z,14.58
2022-11-02T08:23:17.581Z,14.81
2022-11-02T08:24:19.554Z,14.38
2022-11-02T08:25:24.003Z,15.58
2022-11-02T08:26:26.022Z,14.54
2022-11-02T08:27:27.930Z,15.92
2022-11-02T08:28:32.122Z,14.33
2022-11-02T08:29:34.029Z,14.61
2022-11-02T08:30:37.517Z,15.95
2022-11-02T08:31:39.460Z,14.74
2022-11-02T08:32:41.709Z,15.21
2022-11-02T08:33:45.054Z,15.70
2022-11-02T08:34:47.077Z,14.91
2022-11-02T08:35:49.650Z,15.72
2022-11-02T08:36:51.664Z,16.75
2022-11-02T08:37:55.067Z,15.43
2022-11-02T08:38:56.967Z,15.42
2022-11-02T08:39:58.868Z,16.16
2022-11-02T08:41:00.880Z,17.73
2022-11-02T08:42:03.166Z,14.65
2022-11-02T08:43:08.792Z,14.88
2022-11-02T08:44:10.726Z,14.82
2022-11-02T08:45:12.758Z,15.35
2022-11-02T08:46:16.368Z,16.79
2022-11-02T08:47:18.755Z,15.11
2022-11-02T08:48:20.749Z,14.65
2022-11-02T08:49:22.717Z,16.63
2022-11-02T08:50:25.795Z,15.52
2022-11-02T08:51:28.926Z,16.53
2022-11-02T08:52:40.505Z,16.11
2022-11-02T08:53:44.655Z,16.67
2022-11-02T08:54:45.846Z,16.64
2022-11-02T08:55:47.715Z,15.85
2022-11-02T08:56:49.854Z,15.46
2022-11-02T08:57:56.897Z,15.95
2022-11-02T08:58:58.952Z,15.17
2022-11-02T09:00:01.089Z,15.31
2022-11-02T09:01:02.975Z,16.25
2022-11-02T09:02:05.166Z,15.45
2022-11-02T09:03:12.188Z,15.72
2022-11-02T09:04:15.774Z,16.12
2022-11-02T09:05:18.183Z,14.75
2022-11-02T09:06:20.364Z,15.89
2022-11-02T09:07:22.438Z,15.66
2022-11-02T09:09:26.177Z,15.27
2022-11-02T09:10:30.108Z,15.19
2022-11-02T09:11:32.080Z,14.51
2022-11-02T09:12:33.957Z,14.14
2022-11-02T09:13:38.585Z,14.75
2022-11-02T09:14:41.073Z,14.52
2022-11-02T09:15:43.507Z,14.22
2022-11-02T09:16:45.545Z,14.40
2022-11-02T09:17:49.090Z,14.29
2022-11-02T09:18:51.004Z,15.67
2022-11-02T09:19:52.883Z,14.55
2022-11-02T09:20:56.417Z,14.05
2022-11-02T09:21:59.591Z,14.34
2022-11-02T09:23:02.104Z,15.44
2022-11-02T09:24:05.039Z,14.21
2022-11-02T09:25:07.937Z,15.21
2022-11-02T09:26:10.171Z,15.14
2022-11-02T09:27:12.072Z,14.20
2022-11-02T09:28:13.978Z,14.43
2022-11-02T09:29:15.906Z,15.19
2022-11-02T09:30:18.186Z,15.89
2022-11-02T09:31:20.090Z,14.73
2022-11-02T09:32:22.826Z,14.59
2022-11-02T09:33:24.724Z,15.22
2022-11-02T09:34:26.613Z,14.77
2022-11-02T09:35:31.744Z,14.11
2022-11-02T09:36:34.023Z,13.63
2022-11-02T09:37:36.401Z,14.21
2022-11-02T09:38:38.311Z,14.53
2022-11-02T09:39:40.253Z,12.94
2022-11-02T09:41:00.600Z,14.49
2022-11-02T09:43:37.412Z,13.66
2022-11-02T09:45:00.499Z,13.82
2022-11-02T09:46:09.378Z,13.84
2022-11-02T09:48:26.801Z,14.23
2022-11-02T09:49:26.273Z,14.02
2022-11-02T09:51:58.274Z,15.48
2022-11-02T09:53:03.943Z,15.42
2022-11-02T09:54:35.960Z,14.64
2022-11-02T09:56:45.342Z,20.69
2022-11-02T09:57:50.763Z,17.47
2022-11-02T09:59:03.496Z,25.33
2022-11-02T10:00:09.615Z,78.43
2022-11-02T10:01:15.341Z,65.25
2022-11-02T10:02:39.066Z,55.11
2022-11-02T10:03:47.709Z,42.12
2022-11-02T10:05:28.281Z,29.78
2022-11-02T10:06:33.208Z,27.44
2022-11-02T10:08:00.251Z,24.02
2022-11-02T10:09:09.247Z,23.11
2022-11-02T10:10:26.954Z,18.94
2022-11-02T10:11:53.760Z,69.65
2022-11-02T10:13:16.449Z,44.65
2022-11-02T10:14:22.171Z,28.06
2022-11-02T10:15:42.956Z,20.62
2022-11-02T10:16:55.052Z,18.48
2022-11-02T10:17:59.600Z,16.41
2022-11-02T10:19:03.671Z,17.11
2022-11-02T10:20:27.429Z,17.11
2022-11-02T10:21:35.142Z,17.59
2022-11-02T10:22:41.199Z,17.62
2022-11-02T10:23:54.002Z,15.32
2022-11-02T10:24:59.387Z,15.09
2022-11-02T10:26:02.742Z,17.12
2022-11-02T10:27:13.866Z,16.23
2022-11-02T10:28:18.960Z,17.06
2022-11-02T10:30:36.745Z,15.37
2022-11-02T10:31:38.880Z,14.65
2022-11-02T10:33:43.933Z,13.70
2022-11-02T10:34:58.491Z,14.23
2022-11-02T10:36:22.145Z,14.04
2022-11-02T10:37:32.404Z,13.62
2022-11-02T10:38:49.963Z,14.49
2022-11-02T10:40:23.711Z,15.55
2022-11-02T10:41:29.404Z,22.77
2022-11-02T10:42:35.334Z,27.09
2022-11-02T10:43:48.226Z,30.09
2022-11-02T10:45:06.861Z,26.19
2022-11-02T10:47:56.600Z,19.56
2022-11-02T10:49:14.610Z,30.43
2022-11-02T10:52:04.891Z,24.10
2022-11-02T10:53:35.314Z,21.14
2022-11-02T10:54:20.581Z,20.59
2022-11-02T10:56:43.175Z,20.22
2022-11-02T10:57:45.583Z,17.89
2022-11-02T10:59:03.105Z,21.95
2022-11-02T11:00:31.612Z,22.47
2022-11-02T11:01:35.065Z,19.98
2022-11-02T11:02:37.106Z,16.67
2022-11-02T11:04:03.083Z,14.57
2022-11-02T11:05:13.596Z,16.66
2022-11-02T11:06:16.677Z,16.11
2022-11-02T11:08:44.259Z,14.19
2022-11-02T11:09:56.314Z,13.57
2022-11-02T11:11:18.904Z,13.65
2022-11-02T11:12:33.442Z,14.54
2022-11-02T11:15:53.863Z,14.07
2022-11-02T11:19:39.976Z,15.64
2022-11-02T11:20:36.226Z,15.71
2022-11-02T11:21:42.471Z,16.03
2022-11-02T11:22:44.440Z,17.26
2022-11-02T11:23:46.335Z,16.49
2022-11-02T11:24:48.351Z,18.66
2022-11-02T11:27:20.716Z,22.23
2022-11-02T11:28:31.752Z,17.42
2022-11-02T11:29:36.979Z,17.02
2022-11-02T11:30:58.900Z,16.64
2022-11-02T11:31:43.351Z,17.27
2022-11-02T11:32:47.547Z,16.79
2022-11-02T11:33:57.823Z,18.88
2022-11-02T11:35:02.887Z,17.57
2022-11-02T11:36:07.526Z,17.07
2022-11-02T11:37:14.233Z,16.75
2022-11-02T11:38:22.777Z,16.69
2022-11-02T11:39:30.009Z,16.65
2022-11-02T11:40:38.955Z,17.40
2022-11-02T11:41:43.386Z,16.21
2022-11-02T11:42:48.097Z,17.00
2022-11-02T11:43:51.912Z,15.92
2022-11-02T11:45:23.568Z,14.87
2022-11-02T11:46:41.651Z,14.89
2022-11-02T11:47:45.067Z,17.76
2022-11-02T11:48:50.843Z,16.21
2022-11-02T11:50:08.643Z,15.06
2022-11-02T11:51:01.872Z,14.97
2022-11-02T11:52:05.180Z,14.23
2022-11-02T11:53:19.870Z,14.07
2022-11-02T11:55:55.095Z,14.57
2022-11-02T11:57:00.766Z,14.48
2022-11-02T11:58:08.884Z,14.67
2022-11-02T11:59:23.736Z,14.59
2022-11-02T12:00:28.012Z,14.06
2022-11-02T12:01:38.773Z,13.89
2022-11-02T12:02:44.544Z,14.44
2022-11-02T12:03:59.270Z,14.57
2022-11-02T12:05:16.597Z,14.37
2022-11-02T12:06:43.811Z,12.86
2022-11-02T12:08:06.445Z,14.64
2022-11-02T12:09:18.286Z,13.75
2022-11-02T12:10:51.768Z,13.86
2022-11-02T12:12:18.906Z,14.35
2022-11-02T12:13:47.758Z,12.00
2022-11-02T12:15:13.336Z,14.09
2022-11-02T12:16:28.514Z,12.63
2022-11-02T12:17:43.518Z,12.52
2022-11-02T12:19:09.084Z,12.81
2022-11-02T12:20:20.784Z,13.02
2022-11-02T12:21:35.872Z,13.02
2022-11-02T12:22:50.727Z,12.53
2022-11-02T12:24:04.780Z,11.86
2022-11-02T12:25:31.688Z,13.08
2022-11-02T12:28:12.562Z,12.77
2022-11-02T12:29:47.449Z,13.41
2022-11-02T12:30:59.337Z,12.14
2022-11-02T12:32:24.767Z,13.17
2022-11-02T12:33:42.560Z,11.62
2022-11-02T12:35:27.368Z,11.41
2022-11-02T12:36:20.480Z,12.24
2022-11-02T12:37:40.328Z,12.02
2022-11-02T12:38:58.777Z,12.37
2022-11-02T12:40:31.979Z,11.18
2022-11-02T12:41:55.764Z,10.97
2022-11-02T12:43:10.026Z,11.48
2022-11-02T12:44:18.679Z,12.08
2022-11-02T12:45:42.443Z,10.44
2022-11-02T12:47:00.730Z,11.05
2022-11-02T12:48:05.517Z,11.37
2022-11-02T12:49:40.590Z,11.63
2022-11-02T12:50:54.952Z,11.40
2022-11-02T12:52:15.697Z,11.60
2022-11-02T12:53:40.708Z,12.02
2022-11-02T12:54:50.133Z,11.56
2022-11-02T12:55:55.827Z,11.53
2022-11-02T12:56:58.188Z,11.92
2022-11-02T12:58:07.218Z,12.17
2022-11-02T13:00:32.265Z,11.94
2022-11-02T13:01:41.421Z,11.53
2022-11-02T13:03:03.207Z,12.27
2022-11-02T14:27:44.036Z,18.49
2022-11-02T14:28:46.060Z,18.03
2022-11-02T14:29:52.179Z,17.67
2022-11-02T14:31:07.145Z,16.78
2022-11-02T14:32:18.802Z,18.65
2022-11-02T14:33:41.466Z,18.28
2022-11-02T14:34:56.250Z,22.79
2022-11-02T14:36:01.948Z,21.45
2022-11-02T14:37:25.558Z,20.12
2022-11-02T14:39:59.548Z,21.32
2022-11-02T14:41:20.685Z,20.60
2022-11-02T14:42:38.643Z,20.61
2022-11-02T14:44:02.735Z,21.53
2022-11-02T14:45:14.460Z,21.82
2022-11-02T14:46:38.545Z,20.21
2022-11-02T14:47:41.483Z,20.58
2022-11-02T14:48:53.117Z,21.66
2022-11-02T14:50:01.755Z,21.59
2022-11-02T14:51:07.571Z,21.24
2022-11-02T14:52:16.589Z,21.41
2022-11-02T14:53:25.198Z,22.61
2022-11-02T14:54:30.657Z,21.76
2022-11-02T14:55:35.678Z,21.23
2022-11-02T14:56:50.127Z,22.08
2022-11-02T14:57:55.867Z,19.78
2022-11-02T14:58:59.076Z,21.74
2022-11-02T15:00:05.074Z,20.11
2022-11-02T15:01:11.039Z,19.38
2022-11-02T15:02:37.407Z,18.38
2022-11-02T15:03:42.497Z,20.94
2022-11-02T15:04:53.845Z,19.41
2022-11-02T15:06:08.802Z,19.78
2022-11-02T15:07:14.749Z,18.50
2022-11-02T15:08:23.664Z,21.42
2022-11-02T15:09:51.832Z,22.07
2022-11-02T15:10:54.388Z,22.03
2022-11-02T15:11:57.601Z,23.25
2022-11-02T15:13:22.674Z,22.32
2022-11-02T15:14:37.754Z,23.28
2022-11-02T15:15:39.993Z,22.22
2022-11-02T15:16:42.108Z,23.22
2022-11-02T15:17:47.845Z,21.07
2022-11-02T15:18:50.623Z,23.21
2022-11-02T15:19:58.983Z,20.48
2022-11-02T15:21:16.880Z,21.47
2022-11-02T15:22:48.861Z,19.20
2022-11-02T15:24:03.384Z,18.90
2022-11-02T15:25:15.120Z,18.86
2022-11-02T15:27:59.656Z,18.01
2022-11-02T15:29:04.987Z,17.79
2022-11-02T15:30:14.258Z,17.91
2022-11-02T15:31:25.687Z,15.14
2022-11-02T15:32:27.448Z,15.73
2022-11-02T15:33:45.257Z,16.48
2022-11-02T15:34:51.352Z,16.41
2022-11-02T15:35:54.354Z,16.01
2022-11-02T15:36:59.172Z,19.86
2022-11-02T15:38:16.972Z,17.49
2022-11-02T15:39:11.219Z,18.80
2022-11-02T15:40:29.281Z,19.51
2022-11-02T15:41:41.765Z,17.84
2022-11-02T15:42:51.093Z,19.59
2022-11-02T15:44:02.879Z,28.83
2022-11-02T15:45:41.689Z,24.57
2022-11-02T15:46:31.067Z,23.36
2022-11-02T15:47:53.448Z,21.78
2022-11-02T15:49:14.222Z,23.28
2022-11-02T15:50:23.117Z,25.25
2022-11-02T15:53:22.852Z,26.41
2022-11-02T15:54:17.095Z,25.34
2022-11-02T15:55:44.358Z,22.93
2022-11-02T15:57:07.974Z,24.57
2022-11-02T15:58:22.720Z,22.82
2022-11-02T15:59:37.353Z,23.24
2022-11-02T16:00:39.988Z,23.96
2022-11-02T16:01:42.648Z,22.29
2022-11-02T16:02:51.463Z,21.46
2022-11-02T16:04:06.065Z,20.50
2022-11-02T16:05:18.053Z,21.41
2022-11-02T16:06:30.179Z,20.89
2022-11-02T16:07:50.303Z,20.76
2022-11-02T16:08:38.757Z,19.43
2022-11-02T16:09:40.824Z,20.61
2022-11-02T16:10:43.404Z,20.34
2022-11-02T16:11:49.260Z,18.81
2022-11-02T16:13:15.921Z,19.48
2022-11-02T16:14:18.409Z,18.79
2022-11-02T16:15:20.580Z,19.09
2022-11-02T16:16:22.763Z,19.56
2022-11-02T16:17:29.575Z,20.73
2022-11-02T16:18:39.293Z,21.51
2022-11-02T16:19:41.266Z,20.71
2022-11-02T16:20:45.119Z,21.34
2022-11-02T16:21:50.261Z,22.98
2022-11-02T16:22:58.661Z,23.51
2022-11-02T16:24:01.031Z,27.89
2022-11-02T16:25:09.821Z,25.27
2022-11-02T16:26:19.565Z,22.81
2022-11-02T16:27:22.121Z,23.96